Carson Sink, Nevada Weather observations

Data are for observation ending at time listed.
 Day   Time    Ave.   Ave.  Ave.  Vector   Max.   Stn.    Total    Solar   Ave.  
  of    of     Air    Rel.  Wind   Wind    Wind   Baro.  Precip.   Rad.    Soil  
Year   Day     Temp.  Hum.  Speed  Dir.    Gust   Pres.                    Temp. 
2016   (PST)    F      %     mph   deg.    mph     mb.     in.     W/m2     F   
------------------------------------------------------------------------------
 210    3:30   71.7    18    6.7   206      7.7   883.7    0.00       0     88.8
 210    3:40   70.9    19    5.2   215      6.2   883.7    0.00       0     88.6
 210    3:50   70.2    20    4.3   250      5.3   883.8    0.00       0     88.4
 210    4:00   69.9    20    5.2   295      6.9   883.9    0.00       0     88.3
 210    4:10   69.6    20    3.2     5      4.8   883.9    0.00       0     88.1
 210    4:20   68.8    21    3.4    42      3.9   883.9    0.00       0     87.9
 210    4:30   67.7    22    4.2    61      7.2   884.0    0.00       0     87.7
 210    4:40   67.5    22    6.9    69      7.7   884.1    0.00       1     87.5
 210    4:50   67.2    21    6.5    54      7.5   884.1    0.00       2     87.4
 210    5:00   66.7    20    6.0    54      7.2   884.1    0.00       7     87.2
 210    5:10   66.5    19    5.4    49      6.1   884.1    0.00      25     87.1
 210    5:20   66.9    19    5.1    54      6.1   884.3    0.00      51     86.9
 210    5:30   67.4    18    5.9    63      7.7   884.3    0.00      82     86.7
 210    5:40   67.6    17    6.9    64      8.4   884.4    0.00     113     86.5
 210    5:50   67.9    17    6.0    67      6.9   884.5    0.00     143     86.4
 210    6:00   69.3    17    4.9    54      6.2   884.6    0.00     174     86.2
 210    6:10   70.4    17    6.0    46      7.4   884.7    0.00     206     86.1
 210    6:20   71.6    16    7.1    44      8.3   884.7    0.00     237     85.9
 210    6:30   72.8    16    7.2    52      8.4   884.6    0.00     269     85.7
 210    6:40   74.1    16    6.4    56      7.9   884.6    0.00     300     85.7
 210    6:50   74.9    16    8.7    48     10.5   884.6    0.00     332     85.5
 210    7:00   75.7    15    8.9    51     10.4   884.6    0.00     365     85.5
 210    7:10   77.3    15    7.2    55      8.6   884.5    0.00     396     85.4
 210    7:20   79.0    15    6.7    57      8.0   884.6    0.00     428     85.4
 210    7:30   80.2    14    5.6    60      7.1   884.6    0.00     459     85.3
 210    7:40   81.2    14    5.8    58      7.5   884.6    0.00     490     85.3
 210    7:50   82.4    14    5.4    53      6.9   884.7    0.00     521     85.3
 210    8:00   83.5    13    5.4    52      6.9   884.7    0.00     552     85.4
 210    8:10   84.5    13    4.3    64      6.4   884.6    0.00     581     85.4
 210    8:20   85.5    13    3.7    65      6.0   884.5    0.00     610     85.5
 210    8:30   86.5    13    3.3    69      5.7   884.5    0.00     639     85.7
 210    8:40   87.4    13    4.0    96      6.4   884.4    0.00     665     85.8
 210    8:50   88.2    12    3.6   121      6.4   884.4    0.00     691     86.0
 210    9:00   89.1    12    4.0   148      6.6   884.4    0.00     716     86.2
 210    9:10   90.5    12    4.6   186      7.4   884.4    0.00     741     86.4
 210    9:20   90.7    12    3.1   140      6.9   884.3    0.00     765     86.6
 210    9:30   91.7    11    2.6   194      6.4   884.3    0.00     788     86.9
 210    9:40   91.8    11    2.4   148      6.9   884.3    0.00     809     87.2
 210    9:50   93.3    11    4.2   195      7.2   884.3    0.00     828     87.5
 210   10:00   92.4    11    3.5   180      6.4   884.2    0.00     847     87.8
 210   10:10   92.9    10    2.6   348      6.6   884.2    0.00     865     88.1
 210   10:20   93.7    10    2.7   210      6.5   884.1    0.00     880     88.5
 210   10:30   95.0    10    2.9   197      6.2   884.0    0.00     893     88.9
 210   10:40   94.9     9    3.0   144      5.7   884.0    0.00     908     89.2
 210   10:50   95.4     9    3.2   117      7.2   883.9    0.00     920     89.6
 210   11:00   95.7     9    3.4   129      5.9   883.7    0.00     929     90.0
 210   11:10   96.2     8    3.6    37      6.4   883.7    0.00     939     90.4
 210   11:20   96.8     8    3.0   107      6.6   883.5    0.00     945     90.9
 210   11:30   97.2     8    3.9   150      6.4   883.4    0.00     948     91.3
 210   11:40   97.8     8    3.5    58      7.2   883.3    0.00     953     91.7
 210   11:50   98.3     8    3.2    67      6.6   883.2    0.00     954     92.2
 210   12:00  100.0     7    2.3   124      6.6   883.1    0.00     953     92.7
 210   12:10   99.1     8    5.1   358      9.6   882.9    0.00     951     93.1
 210   12:20  100.0     7    2.1   348      6.1   882.9    0.00     948     93.6
 210   12:30  100.3     7    4.0    22      9.0   882.7    0.00     942     94.0
 210   12:40  100.1     8    4.4    60      8.6   882.6    0.00     936     94.5
 210   12:50  100.1     8    4.1    82      9.2   882.4    0.00     927     95.0
 210   13:00  101.1     8    4.0   206      7.7   882.2    0.00     917     95.4
 210   13:10  102.0     8    5.7   306     15.7   882.0    0.00     906     95.9
 210   13:20  101.6     8    7.0   354     12.6   882.0    0.00     894     96.4
 210   13:30  100.8     8    6.6   345     10.7   881.9    0.00     881     96.8
 210   13:40  101.4     8    5.4   319     12.2   881.7    0.00     866     97.2
 210   13:50  101.7     7    6.3   273     12.0   881.5    0.00     850     97.6
 210   14:00  101.8     7    4.9   310      8.5   881.5    0.00     832     98.0
 210   14:10  102.2     7    6.5   337     13.7   881.3    0.00     813     98.3
 210   14:20  102.6     7    7.5   283     13.5   881.2    0.00     793     98.6
 210   14:30  102.3     7    7.5   312     12.6   881.2    0.00     774     98.9
 210   14:40  102.5     7    8.4   287     16.4   881.0    0.00     746     99.1
 210   14:50  103.3     7    3.8   157      8.1   881.0    0.00     721     99.3
 210   15:00  102.6     7    7.5   354     13.5   880.8    0.00     699     99.5
 210   15:10  102.6     7    5.1   282     11.7   880.7    0.00     675     99.7
 210   15:20  103.9     6    6.1   234     12.4   880.6    0.00     649     99.9
 210   15:30  103.5     6    5.8   223     10.0   880.6    0.00     620    100.0
 210   15:40  104.7     6    4.3   166      8.0   880.5    0.00     590    100.2
 210   15:50  104.4     7    5.0   248      9.9   880.4    0.00     562    100.4
 210   16:00  104.1     7    7.7   287     15.8   880.3    0.00     531    100.6
 210   16:10  103.5     7    6.8   263     14.0   880.3    0.00     501    100.8
 210   16:20  103.5     7    3.0   343      7.0   880.2    0.00     471    100.9
 210   16:30  104.2     7    3.5   258      9.0   880.2    0.00     441    101.1
 210   16:40  104.3     7    2.6   289      8.4   880.1    0.00     406    101.2
 210   16:50  104.3     7    8.9   300     16.7   880.0    0.00     386    101.4
 210   17:00  103.3     7    8.7   335     13.6   879.9    0.00     352    101.5
 210   17:10  103.1     7    8.2   349     14.2   879.9    0.00     319    101.6
 210   17:20  103.6     7    3.0   315      5.2   879.8    0.00     288    101.7
 210   17:30  103.8     7    4.8   320     10.5   879.8    0.00     259    101.7
 210   17:40  102.7     7    5.6    24     10.1   879.7    0.00     226    101.8
 210   17:50  102.7     7    6.3     5      9.1   879.7    0.00     199    101.8
 210   18:00  102.9     7    4.0   354      9.4   879.7    0.00     171    101.7
 210   18:10  102.8     7    8.2   319     17.0   879.7    0.00     145    101.7
 210   18:20  102.4     8    9.8   314     13.7   879.7    0.00     104    101.6
 210   18:30  101.7     8   11.1   310     15.1   879.7    0.00      36    101.5
 210   18:40  101.2     8   11.6   311     13.5   879.8    0.00      46    101.4
 210   18:50  100.9     8    9.0   310     12.6   879.9    0.00      33    101.3
 210   19:00  100.3     8    9.2   311     12.3   879.9    0.00      17    101.1
 210   19:10   98.9     9    9.4   305     10.7   879.9    0.00       7    101.0
 210   19:20   97.8     9    8.1   303      9.6   879.9    0.00       3    100.8
 210   19:30   96.7    10    6.8   305      7.8   879.9    0.00       1    100.7
 210   19:40   95.6    10    6.9   298      8.0   880.0    0.00       0    100.5
 210   19:50   94.3    10    6.2   306      7.4   880.1    0.00       0    100.3
 210   20:00   93.2    10    6.3   309      7.2   880.2    0.00       0    100.1
 210   20:10   92.6    11    6.4   298      7.4   880.3    0.00       0     99.9
 210   20:20   91.9    11    6.8   309      7.5   880.4    0.00       0     99.7
 210   20:30   91.7    11    7.2   314      8.5   880.5    0.00       0     99.4
 210   20:40   90.0    12    5.0   336      7.8   880.6    0.00       0     99.2
 210   20:50   89.6    12    7.6   337      9.7   880.8    0.00       0     98.9
 210   21:00   91.1    11    7.7   323      8.7   880.8    0.00       0     98.7
 210   21:10   90.4    12    6.2   326      7.5   880.9    0.00       0     98.5
 210   21:20   88.9    12    4.1   289      9.2   880.9    0.00       0     98.2
 210   21:30   89.1    12   11.6   228     16.1   881.0    0.00       0     98.0
 210   21:40   92.9    11    6.0   255      8.5   881.2    0.00       0     97.8
 210   21:50   92.5    11    4.8   252      6.9   881.2    0.00       0     97.6
 210   22:00   90.2    12    5.2   261      7.8   881.2    0.00       0     97.4
 210   22:10   89.7    12    4.2   271      5.9   881.2    0.00       0     97.1
 210   22:20   89.9    13    3.9   279      7.0   881.3    0.00       0     96.9
 210   22:30   88.9    13    5.2   225      7.7   881.3    0.00       0     96.7
 210   22:40   87.4    14    8.8   260     12.6   881.3    0.00       0     96.4
 210   22:50   87.0    15    7.2   279     11.0   881.3    0.00       0     96.2
 210   23:00   85.8    15    3.0   297      5.1   881.3    0.00       0     96.0
 210   23:10   86.1    15    1.6   342      3.1   881.4    0.00       0     95.8
 210   23:20   86.1    14    1.2    41      1.6   881.4    0.00       0     95.6
 210   23:30   85.5    14    0.8    28      2.3   881.4    0.00       0     95.4
 210   23:40   84.6    15    3.8   198      5.5   881.4    0.00       0     95.2
 210   23:50   84.0    16    5.3   163      7.5   881.4    0.00       0     95.0
 211    0:00   84.8    17    5.7   174      7.1   881.3    0.00       0     94.8
 211    0:10   83.5    18    6.9   193      8.6   881.3    0.00       0     94.6
 211    0:20   82.7    18    7.2   194      8.9   881.2    0.00       0     94.4
 211    0:30   82.0    18    7.4   209      9.2   881.1    0.00       0     94.2
 211    0:40   82.3    19    9.1   221     10.5   881.1    0.00       0     94.0
 211    0:50   81.9    19    7.8   218      8.7   881.1    0.00       0     93.8
 211    1:00   81.0    20    7.0   224      9.4   881.1    0.00       0     93.7
 211    1:10   81.4    19    7.8   224      9.3   881.1    0.00       0     93.5
 211    1:20   80.3    20    7.1   221      8.1   881.2    0.00       0     93.3
 211    1:30   79.7    20    8.3   224      9.6   881.2    0.00       0     93.1
 211    1:40   79.8    20    7.9   220      8.7   881.2    0.00       0     92.9
 211    1:50   79.6    20    7.2   205     10.1   881.3    0.00       0     92.7
 211    2:00   78.8    21    3.4   335      6.6   881.3    0.00       0     92.5
 211    2:10   79.3    20    2.9   174      7.0   881.3    0.00       0     92.4
 211    2:20   79.0    21    3.2   254      6.4   881.4    0.00       0     92.2
 211    2:30   78.2    21    3.3   228      6.2   881.4    0.00       0     92.0
 211    2:40   77.6    22    5.6   226      6.9   881.3    0.00       0     91.8
 211    2:50   76.5    23    4.3   252      5.8   881.3    0.00       0     91.7
 211    3:00   76.5    23    4.4   251      6.9   881.3    0.00       0     91.5
 211    3:10   75.8    24    4.7   249      6.4   881.3    0.00       0     91.3
 211    3:20   75.5    24    3.2   252      4.5   881.4    0.00       0     91.1

Return to Carson Sink graphs page.


Western Regional Climate Center,wrcc@dri.edu